createdAt,value
2022-11-19T00:01:17.689Z,79.23
2022-11-19T00:06:22.917Z,78.63
2022-11-19T00:11:41.976Z,78.84
2022-11-19T00:16:46.431Z,79.71
2022-11-19T00:21:50.175Z,80.23
2022-11-19T00:26:53.060Z,79.64
2022-11-19T00:31:57.314Z,80.01
2022-11-19T00:37:00.219Z,80.41
2022-11-19T00:42:03.078Z,80.88
2022-11-19T00:47:07.480Z,80.13
2022-11-19T00:52:10.372Z,80.97
2022-11-19T00:57:13.223Z,79.79
2022-11-19T01:02:17.427Z,79.90
2022-11-19T01:07:20.354Z,79.11
2022-11-19T01:12:23.299Z,79.29
2022-11-19T01:17:27.552Z,79.94
2022-11-19T01:22:30.490Z,79.50
2022-11-19T01:27:33.352Z,79.73
2022-11-19T01:32:37.594Z,80.14
2022-11-19T01:37:40.470Z,80.50
2022-11-19T01:42:53.950Z,80.35
2022-11-19T01:48:02.040Z,80.05
2022-11-19T01:53:05.406Z,80.38
2022-11-19T01:58:09.118Z,81.01
2022-11-19T02:03:15.226Z,79.96
2022-11-19T02:08:37.361Z,80.61
2022-11-19T02:13:43.947Z,80.75
2022-11-19T02:18:52.686Z,80.97
2022-11-19T02:24:14.401Z,81.38
2022-11-19T02:29:31.950Z,80.65
2022-11-19T02:34:43.381Z,80.65
2022-11-19T02:39:52.300Z,80.08
2022-11-19T02:45:00.048Z,79.95
2022-11-19T02:50:10.805Z,80.36
2022-11-19T02:55:19.220Z,81.22
2022-11-19T03:00:40.539Z,81.06
2022-11-19T03:05:49.936Z,80.50
2022-11-19T03:11:12.315Z,80.12
2022-11-19T03:16:39.425Z,79.94
2022-11-19T03:21:52.508Z,79.69
2022-11-19T03:26:59.390Z,79.93
2022-11-19T03:32:07.818Z,80.08
2022-11-19T03:37:14.048Z,81.23
2022-11-19T03:42:20.045Z,79.89
2022-11-19T03:47:27.579Z,79.92
2022-11-19T03:52:33.475Z,79.82
2022-11-19T03:57:36.356Z,79.74
2022-11-19T04:02:39.289Z,80.12
2022-11-19T04:07:43.560Z,82.12
2022-11-19T04:12:46.542Z,80.98
2022-11-19T04:17:49.427Z,80.77
2022-11-19T04:22:53.818Z,80.17
2022-11-19T04:27:56.728Z,80.10
2022-11-19T04:32:59.630Z,80.77
2022-11-19T04:38:04.153Z,79.09
2022-11-19T04:43:07.081Z,80.04
2022-11-19T04:48:09.998Z,80.30
2022-11-19T04:53:14.268Z,80.52
2022-11-19T04:58:17.146Z,79.77
2022-11-19T05:03:20.092Z,82.05
2022-11-19T05:08:24.895Z,80.63
2022-11-19T05:13:27.830Z,80.67
2022-11-19T05:18:30.782Z,80.48
2022-11-19T05:23:35.288Z,79.51
2022-11-19T05:28:39.642Z,79.87
2022-11-19T05:33:43.060Z,79.35
2022-11-19T05:38:47.555Z,79.89
2022-11-19T05:43:50.410Z,78.52
2022-11-19T05:48:53.301Z,79.14
2022-11-19T05:53:57.581Z,78.50
2022-11-19T05:59:00.497Z,79.60
2022-11-19T06:04:03.446Z,79.37
2022-11-19T06:09:08.225Z,79.43
2022-11-19T06:14:11.118Z,79.16
2022-11-19T06:19:14.010Z,79.51
2022-11-19T06:24:18.748Z,78.71
2022-11-19T06:29:22.075Z,78.66
2022-11-19T06:34:25.097Z,78.88
2022-11-19T06:39:29.382Z,77.98
2022-11-19T06:44:32.244Z,78.07
2022-11-19T06:49:35.084Z,79.31
2022-11-19T06:54:42.934Z,77.77
2022-11-19T06:59:46.240Z,78.61
2022-11-19T07:04:49.144Z,77.91
2022-11-19T07:09:53.386Z,79.37
2022-11-19T07:15:01.106Z,78.05
2022-11-19T07:20:08.103Z,78.30
2022-11-19T07:25:13.587Z,77.93
2022-11-19T07:30:17.498Z,78.15
2022-11-19T07:35:20.403Z,78.23
2022-11-19T07:40:24.741Z,78.72
2022-11-19T07:45:27.695Z,77.42
2022-11-19T07:50:30.684Z,77.31
2022-11-19T07:55:35.244Z,77.57
2022-11-19T08:00:38.328Z,77.81
2022-11-19T08:05:42.042Z,78.16
2022-11-19T08:10:46.276Z,76.63
2022-11-19T08:15:49.156Z,74.99
2022-11-19T08:20:52.482Z,73.98
2022-11-19T08:25:56.857Z,73.40
2022-11-19T08:31:06.804Z,71.10
2022-11-19T08:36:09.913Z,71.34
2022-11-19T08:41:31.723Z,69.84
2022-11-19T08:46:34.681Z,68.85
2022-11-19T08:51:37.601Z,68.41
2022-11-19T08:56:41.983Z,68.20
2022-11-19T09:01:45.126Z,68.41
2022-11-19T09:06:48.221Z,66.55
2022-11-19T09:11:52.582Z,69.22
2022-11-19T09:16:55.719Z,67.05
2022-11-19T09:21:58.744Z,67.71
2022-11-19T09:27:04.433Z,68.86
2022-11-19T09:32:07.787Z,68.82
2022-11-19T09:37:11.396Z,67.02
2022-11-19T09:42:26.953Z,66.53
2022-11-19T09:47:39.732Z,69.36
2022-11-19T09:52:48.017Z,67.81
2022-11-19T09:57:55.994Z,68.79
2022-11-19T10:03:02.467Z,67.70
2022-11-19T10:08:16.594Z,67.67
2022-11-19T10:13:45.211Z,67.92
2022-11-19T10:19:00.418Z,69.14
2022-11-19T10:24:17.749Z,70.57
2022-11-19T10:29:27.322Z,69.14
2022-11-19T10:34:34.768Z,68.86
2022-11-19T10:39:42.134Z,68.42
2022-11-19T10:44:53.870Z,69.97
2022-11-19T10:49:57.429Z,67.46
2022-11-19T10:55:06.132Z,69.19
2022-11-19T11:00:12.561Z,68.07
2022-11-19T11:05:18.071Z,72.03
2022-11-19T11:10:34.084Z,71.66
2022-11-19T11:15:45.712Z,70.81
2022-11-19T11:20:50.985Z,70.33
2022-11-19T11:25:57.546Z,69.71
2022-11-19T11:31:03.975Z,69.17
2022-11-19T11:36:10.049Z,68.41
2022-11-19T11:42:04.312Z,67.14
2022-11-19T11:46:44.376Z,65.28
2022-11-19T11:51:47.367Z,66.03
2022-11-19T11:56:50.451Z,66.84
2022-11-19T12:01:59.521Z,66.11
2022-11-19T12:07:14.157Z,66.23
2022-11-19T12:12:26.215Z,67.10
2022-11-19T12:17:44.350Z,67.99
2022-11-19T12:23:01.566Z,66.22
2022-11-19T12:28:26.816Z,66.33
2022-11-19T12:33:44.256Z,66.69
2022-11-19T12:38:55.817Z,66.77
2022-11-19T12:44:01.019Z,67.68
2022-11-19T12:49:36.723Z,66.14
2022-11-19T12:54:53.843Z,66.51
2022-11-19T13:00:15.313Z,66.91
2022-11-19T13:05:21.098Z,67.67
2022-11-19T13:10:30.047Z,68.84
2022-11-19T13:15:38.599Z,69.70
2022-11-19T13:20:46.545Z,69.69
2022-11-19T13:26:00.141Z,69.80
2022-11-19T13:31:10.164Z,70.23
2022-11-19T13:36:23.260Z,70.30
2022-11-19T13:41:32.164Z,70.83
2022-11-19T13:46:40.878Z,70.55
2022-11-19T13:51:46.891Z,70.75
2022-11-19T13:56:53.438Z,71.52
2022-11-19T14:02:07.305Z,71.80
2022-11-19T14:07:42.492Z,71.89
2022-11-19T14:13:00.932Z,72.16
2022-11-19T14:18:29.366Z,72.44
2022-11-19T14:24:00.819Z,72.91
2022-11-19T14:29:05.206Z,72.80
2022-11-19T14:34:26.864Z,73.17
2022-11-19T14:39:32.582Z,73.35
2022-11-19T14:44:37.007Z,73.73
2022-11-19T14:49:41.202Z,74.22
2022-11-19T14:54:45.940Z,74.21
2022-11-19T14:59:54.232Z,74.45
2022-11-19T15:05:02.835Z,74.81
2022-11-19T15:10:31.723Z,74.92
2022-11-19T15:15:44.401Z,75.75
2022-11-19T15:21:08.812Z,75.73
2022-11-19T15:26:22.951Z,78.02
2022-11-19T15:31:59.566Z,77.88
2022-11-19T15:37:05.605Z,77.29
2022-11-19T15:42:14.786Z,77.21
2022-11-19T15:47:22.979Z,76.70
2022-11-19T15:52:28.824Z,78.70
2022-11-19T15:57:32.364Z,78.81
2022-11-19T16:02:42.244Z,79.45
2022-11-19T16:07:48.679Z,79.63
2022-11-19T16:13:12.837Z,79.90
2022-11-19T16:18:18.943Z,79.40
2022-11-19T16:23:23.646Z,79.13
2022-11-19T16:28:30.427Z,79.52
2022-11-19T16:33:36.076Z,79.24
2022-11-19T16:38:41.124Z,79.78
2022-11-19T16:43:48.419Z,79.01
2022-11-19T16:48:57.865Z,78.77
2022-11-19T16:54:00.973Z,78.59
2022-11-19T16:59:05.679Z,79.63
2022-11-19T17:04:15.461Z,79.84
2022-11-19T17:09:34.743Z,78.99
2022-11-19T17:14:49.945Z,80.60
2022-11-19T17:19:56.407Z,79.23
2022-11-19T17:25:02.326Z,79.53
2022-11-19T17:30:11.349Z,78.97
2022-11-19T17:35:34.323Z,79.93
2022-11-19T17:40:37.427Z,79.25
2022-11-19T17:45:40.372Z,80.09
2022-11-19T17:50:44.629Z,79.15
2022-11-19T17:55:49.691Z,78.64
2022-11-19T18:00:52.721Z,78.91
2022-11-19T18:05:57.854Z,79.09
2022-11-19T18:11:00.851Z,79.08
2022-11-19T18:16:03.821Z,79.35
2022-11-19T18:21:12.890Z,79.74
2022-11-19T18:26:17.674Z,78.54
2022-11-19T18:31:22.630Z,79.10
2022-11-19T18:36:27.282Z,79.88
2022-11-19T18:41:32.102Z,79.60
2022-11-19T18:46:35.206Z,79.40
2022-11-19T18:51:40.313Z,79.96
2022-11-19T18:56:43.207Z,79.90
2022-11-19T19:01:46.389Z,81.59
2022-11-19T19:06:51.113Z,84.06
2022-11-19T19:12:13.723Z,84.64
2022-11-19T19:17:17.559Z,82.55
2022-11-19T19:22:22.594Z,82.50
2022-11-19T19:27:25.617Z,82.92
2022-11-19T19:32:29.086Z,81.81
2022-11-19T19:37:33.515Z,81.73
2022-11-19T19:42:41.082Z,82.12
2022-11-19T19:47:44.341Z,81.76
2022-11-19T19:52:48.702Z,81.17
2022-11-19T19:57:51.818Z,80.52
2022-11-19T20:02:54.769Z,80.87
2022-11-19T20:07:59.060Z,81.89
2022-11-19T20:13:19.217Z,81.20
2022-11-19T20:18:22.104Z,80.52
2022-11-19T20:23:26.324Z,80.11
2022-11-19T20:28:30.237Z,80.54
2022-11-19T20:33:33.589Z,80.51
2022-11-19T20:38:38.527Z,80.69
2022-11-19T20:43:58.694Z,80.77
2022-11-19T20:49:01.670Z,80.16
2022-11-19T20:54:07.500Z,79.38
2022-11-19T20:59:10.967Z,79.38
2022-11-19T21:04:13.857Z,79.64
2022-11-19T21:09:19.614Z,80.22
2022-11-19T21:14:23.126Z,79.72
2022-11-19T21:19:26.054Z,79.43
2022-11-19T21:24:30.351Z,79.73
2022-11-19T21:29:33.257Z,80.10
2022-11-19T21:34:36.188Z,80.05
2022-11-19T21:39:40.415Z,79.70
2022-11-19T21:44:43.299Z,80.00
2022-11-19T21:49:46.159Z,79.58
2022-11-19T21:54:50.453Z,79.45
2022-11-19T21:59:53.351Z,79.31
2022-11-19T22:04:56.384Z,80.56
2022-11-19T22:10:00.687Z,80.48
2022-11-19T22:15:05.045Z,81.03
2022-11-19T22:20:08.790Z,81.03
2022-11-19T22:25:13.877Z,83.21
2022-11-19T22:30:17.162Z,82.04
2022-11-19T22:35:20.067Z,81.16
2022-11-19T22:40:24.302Z,80.90
2022-11-19T22:45:27.188Z,80.27
2022-11-19T22:50:30.052Z,80.38
2022-11-19T22:55:35.606Z,79.84
2022-11-19T23:00:43.127Z,79.71
2022-11-19T23:05:47.817Z,79.81
2022-11-19T23:10:57.969Z,79.19
2022-11-19T23:16:03.486Z,79.50
2022-11-19T23:21:08.838Z,79.68
2022-11-19T23:26:16.146Z,79.57
2022-11-19T23:31:22.465Z,79.80
2022-11-19T23:36:27.343Z,80.07
2022-11-19T23:41:32.796Z,80.14
2022-11-19T23:46:37.523Z,80.11
2022-11-19T23:51:40.615Z,79.45
2022-11-19T23:56:44.955Z,78.92
